Time;durP1;ratioP1;P1;durP2;ratioP2;P2;SDS_P1;SDS_P2;PMS_P1;PMS_P2;Temp;Humidity;BMP_temperature;BMP_pressure;BME280_temperature;BME280_humidity;BME280_pressure;Samples;Min_cycle;Max_cycle;Signal;HPM_P1;HPM_P2
2023/10/29 00:01:28;;;;;;;4.05;1.88;;;;;;;15.23;64.83;63571.94;5014408;28;20277;-83
2023/10/29 00:03:57;;;;;;;7.47;1.50;;;;;;;15.23;64.38;63574.00;5014316;28;20203;-84
2023/10/29 00:06:26;;;;;;;2.65;1.33;;;;;;;15.19;64.79;63562.13;5014934;28;20227;-82
2023/10/29 00:08:53;;;;;;;3.22;1.65;;;;;;;15.12;64.87;63560.50;5013250;28;20230;-82
2023/10/29 00:11:21;;;;;;;1.85;1.60;;;;;;;14.97;64.84;63548.00;5013887;28;20219;-83
2023/10/29 00:13:49;;;;;;;3.05;1.20;;;;;;;15.06;64.61;63556.84;5014656;28;20242;-83
2023/10/29 00:16:17;;;;;;;4.07;1.50;;;;;;;14.90;64.11;63538.19;5012944;28;20219;-83
2023/10/29 00:18:44;;;;;;;2.90;1.35;;;;;;;15.05;64.15;63553.22;5014678;28;20203;-82
2023/10/29 00:21:11;;;;;;;3.78;1.10;;;;;;;14.96;64.15;63544.41;5014509;28;20242;-82
2023/10/29 00:23:40;;;;;;;3.85;2.50;;;;;;;14.94;63.80;63542.31;5012835;28;20219;-83
2023/10/29 00:26:07;;;;;;;2.05;1.10;;;;;;;14.97;64.32;63542.88;5010693;28;20258;-83
2023/10/29 00:28:35;;;;;;;2.60;1.23;;;;;;;14.95;63.65;63538.25;5014478;28;20234;-83
2023/10/29 00:31:03;;;;;;;2.35;1.02;;;;;;;14.92;64.27;63542.28;5016779;28;20219;-84
2023/10/29 00:33:30;;;;;;;3.65;1.20;;;;;;;14.87;64.52;63537.63;5016319;28;20224;-82
2023/10/29 00:35:57;;;;;;;2.70;0.90;;;;;;;14.58;64.64;63507.47;5026034;28;20233;-84
2023/10/29 00:38:24;;;;;;;3.15;1.38;;;;;;;14.65;65.09;63512.19;5016190;28;20206;-84
2023/10/29 00:40:53;;;;;;;2.70;1.38;;;;;;;14.61;64.81;63507.53;5014339;28;20230;-82
2023/10/29 00:43:21;;;;;;;3.80;1.17;;;;;;;14.51;65.25;63497.16;5013376;28;20515;-83
2023/10/29 00:45:53;;;;;;;3.20;1.50;;;;;;;14.40;65.13;63483.16;5015306;28;20238;-82
2023/10/29 00:48:22;;;;;;;2.00;1.08;;;;;;;14.40;65.70;63491.38;5015443;28;20282;-81
2023/10/29 00:50:49;;;;;;;1.63;1.52;;;;;;;14.42;64.92;63490.34;5010082;28;20230;-83
2023/10/29 00:53:17;;;;;;;2.72;1.55;;;;;;;14.29;65.29;63471.75;5013269;28;20207;-84
2023/10/29 00:55:44;;;;;;;1.05;0.98;;;;;;;14.19;66.03;63469.00;5014729;28;20243;-83
2023/10/29 00:58:13;;;;;;;2.22;0.80;;;;;;;14.18;66.16;63460.28;5016626;28;20211;-84
2023/10/29 01:00:41;;;;;;;2.30;1.45;;;;;;;14.05;65.78;63449.38;5003074;28;20211;-83
2023/10/29 01:03:12;;;;;;;1.67;1.15;;;;;;;14.05;65.65;63452.44;5014440;28;20207;-84
2023/10/29 01:05:40;;;;;;;1.80;1.23;;;;;;;14.09;66.46;63456.06;5015824;28;20219;-81
2023/10/29 01:08:08;;;;;;;2.22;1.58;;;;;;;14.08;67.27;63452.47;5013904;28;20269;-82
2023/10/29 01:10:36;;;;;;;3.60;1.40;;;;;;;14.11;66.47;63456.09;5014199;28;20843;-83
2023/10/29 01:13:03;;;;;;;1.45;1.00;;;;;;;13.81;66.87;63424.94;5014807;28;20271;-83
2023/10/29 01:15:32;;;;;;;2.83;0.82;;;;;;;14.04;66.69;63448.84;5016781;28;20204;-83
2023/10/29 01:18:00;;;;;;;3.53;1.15;;;;;;;13.95;66.65;63442.06;5013759;28;20234;-84
2023/10/29 01:20:27;;;;;;;1.23;1.00;;;;;;;13.97;67.16;63441.03;5013539;28;20227;-84
2023/10/29 01:22:56;;;;;;;2.30;0.93;;;;;;;13.88;67.18;63432.22;5013547;28;20453;-83
2023/10/29 01:25:22;;;;;;;4.93;1.42;;;;;;;13.90;67.20;63434.31;4995827;28;20227;-83
2023/10/29 01:27:50;;;;;;;2.35;1.05;;;;;;;13.83;67.55;63424.47;5001641;28;20267;-83
2023/10/29 01:30:18;;;;;;;4.50;1.10;;;;;;;13.80;67.51;63423.94;5013252;28;20219;-82
2023/10/29 01:32:46;;;;;;;1.05;0.88;;;;;;;13.68;68.07;63408.91;5013004;28;20188;-82
2023/10/29 01:35:13;;;;;;;2.45;0.90;;;;;;;13.56;67.89;63402.06;5013975;28;20312;-82
2023/10/29 01:37:41;;;;;;;2.13;1.10;;;;;;;13.48;68.03;63390.69;5013762;28;20191;-83
2023/10/29 01:40:09;;;;;;;1.52;0.90;;;;;;;13.68;68.31;63411.97;5012729;28;20206;-83
2023/10/29 01:42:36;;;;;;;0.80;0.80;;;;;;;13.59;68.72;63399.56;5009329;28;20196;-81
2023/10/29 01:45:04;;;;;;;2.55;1.20;;;;;;;13.60;68.74;63401.13;5006913;28;20203;-82
2023/10/29 01:47:31;;;;;;;2.72;1.10;;;;;;;13.49;69.07;63386.63;5011160;28;20201;-82
2023/10/29 01:50:00;;;;;;;4.43;2.15;;;;;;;13.53;69.21;63393.84;5010645;28;20226;-82
2023/10/29 01:52:27;;;;;;;2.00;1.35;;;;;;;13.58;68.62;63404.16;5021027;28;20283;-83
2023/10/29 01:54:53;;;;;;;2.65;1.70;;;;;;;13.57;68.69;63405.16;5012157;28;20203;-81
2023/10/29 01:57:21;;;;;;;7.13;1.13;;;;;;;13.55;68.88;63395.94;5009543;28;20209;-83
2023/10/29 01:59:48;;;;;;;0.70;0.70;;;;;;;13.60;68.66;63403.16;5010878;28;20199;-82
2023/10/29 02:02:16;;;;;;;1.80;0.75;;;;;;;13.68;67.96;63411.47;5011038;28;20225;-83
2023/10/29 02:04:43;;;;;;;2.80;0.93;;;;;;;13.60;68.17;63401.13;5011782;28;20233;-84
2023/10/29 02:07:11;;;;;;;4.13;1.25;;;;;;;13.59;67.47;63405.22;5011352;28;20215;-82
2023/10/29 02:09:38;;;;;;;2.58;1.25;;;;;;;13.77;67.06;63418.75;5012911;28;20250;-81
2023/10/29 02:12:06;;;;;;;4.43;1.40;;;;;;;13.83;67.03;63427.03;5011687;28;20460;-82
2023/10/29 02:14:36;;;;;;;1.27;0.65;;;;;;;13.94;65.96;63433.34;5012441;28;20255;-82
2023/10/29 02:17:03;;;;;;;2.95;1.00;;;;;;;14.04;65.34;63446.28;5011268;28;20215;-82
2023/10/29 02:19:31;;;;;;;2.25;0.80;;;;;;;14.22;64.43;63469.56;5006815;28;20200;-82
2023/10/29 02:22:00;;;;;;;2.05;0.65;;;;;;;14.27;63.90;63475.28;5009870;28;20290;-83
2023/10/29 02:24:26;;;;;;;1.98;0.57;;;;;;;14.20;63.82;63470.06;5008696;28;20417;-81
2023/10/29 02:26:53;;;;;;;2.60;0.63;;;;;;;14.18;63.92;63463.38;5011818;28;20298;-82
2023/10/29 02:29:20;;;;;;;1.88;0.93;;;;;;;14.26;64.49;63474.25;5011672;28;20254;-83
2023/10/29 02:31:48;;;;;;;2.55;0.68;;;;;;;14.22;64.83;63467.50;5010794;28;20246;-82
2023/10/29 02:34:15;;;;;;;1.70;0.80;;;;;;;14.06;65.62;63452.94;5008235;28;20207;-82
2023/10/29 02:36:42;;;;;;;3.63;0.90;;;;;;;13.96;65.63;63440.00;5009231;28;20219;-82
2023/10/29 02:39:12;;;;;;;0.82;0.80;;;;;;;13.91;65.88;63435.84;5008246;28;20203;-82
2023/10/29 02:41:40;;;;;;;0.98;0.90;;;;;;;13.81;65.91;63428.03;5011183;28;20265;-81
2023/10/29 02:44:07;;;;;;;3.55;1.35;;;;;;;13.77;66.27;63421.31;5009681;28;20567;-83
2023/10/29 02:46:36;;;;;;;5.45;1.15;;;;;;;13.77;66.59;63426.44;5010678;28;20225;-83
2023/10/29 02:49:03;;;;;;;0.77;0.77;;;;;;;13.70;68.13;63414.06;5011754;28;20297;-83
2023/10/29 02:51:30;;;;;;;2.13;1.38;;;;;;;13.47;67.96;63389.66;5011485;28;20215;-82
2023/10/29 02:53:57;;;;;;;1.70;0.95;;;;;;;13.45;68.72;63388.13;5009757;28;20203;-83
2023/10/29 02:56:26;;;;;;;0.80;0.80;;;;;;;13.34;70.35;63376.19;5011316;28;20278;-82
2023/10/29 02:58:53;;;;;;;0.73;0.73;;;;;;;13.42;69.89;63385.00;5013025;28;20199;-82
2023/10/29 03:01:21;;;;;;;1.88;1.02;;;;;;;13.07;72.95;63345.59;5010029;28;20254;-83
2023/10/29 03:03:48;;;;;;;3.72;0.88;;;;;;;13.01;72.99;63345.00;5011803;28;20199;-82
2023/10/29 03:06:15;;;;;;;7.68;1.75;;;;;;;13.00;72.82;63343.44;5010381;28;20219;-83
2023/10/29 03:08:42;;;;;;;3.00;1.05;;;;;;;12.88;73.06;63325.88;5011327;28;20227;-82
2023/10/29 03:11:09;;;;;;;2.15;1.00;;;;;;;12.74;73.49;63314.97;5010694;28;20242;-82
2023/10/29 03:13:38;;;;;;;1.50;0.90;;;;;;;12.72;74.90;63310.34;5011022;28;20191;-82
2023/10/29 03:16:06;;;;;;;2.75;1.23;;;;;;;12.59;75.18;63298.88;5010754;28;20216;-81
2023/10/29 03:18:33;;;;;;;1.10;1.05;;;;;;;12.68;75.38;63308.22;5004048;28;20210;-81
2023/10/29 03:21:01;;;;;;;1.50;0.77;;;;;;;12.53;76.25;63290.63;5021125;28;20523;-82
2023/10/29 03:23:28;;;;;;;2.45;1.00;;;;;;;12.70;76.79;63310.31;5010233;28;20301;-81
2023/10/29 03:26:00;;;;;;;2.25;0.90;;;;;;;12.69;76.66;63306.69;5015076;28;20313;-82
2023/10/29 03:28:27;;;;;;;3.70;0.80;;;;;;;12.67;76.96;63305.16;5011873;28;20219;-82
2023/10/29 03:30:56;;;;;;;1.27;1.00;;;;;;;12.47;78.80;63286.44;5013965;28;20223;-82
2023/10/29 03:33:23;;;;;;;0.82;0.82;;;;;;;12.54;79.80;63296.78;5018205;28;20201;-82
2023/10/29 03:35:50;;;;;;;5.85;1.30;;;;;;;12.48;80.04;63288.00;5015581;28;20219;-82
2023/10/29 03:38:18;;;;;;;0.93;0.85;;;;;;;12.50;79.50;63287.00;5001546;28;20207;-83
2023/10/29 03:40:45;;;;;;;1.95;1.30;;;;;;;12.48;79.56;63288.00;5014008;28;20539;-81
2023/10/29 03:43:12;;;;;;;1.58;0.73;;;;;;;12.49;80.13;63291.59;5006167;28;20204;-81
2023/10/29 03:45:40;;;;;;;2.20;1.02;;;;;;;12.45;80.83;63281.81;5006836;28;20227;-82
2023/10/29 03:48:09;;;;;;;3.28;1.10;;;;;;;12.36;81.61;63277.59;5012971;28;20230;-82
2023/10/29 03:50:36;;;;;;;1.52;1.20;;;;;;;12.36;81.56;63278.13;5014967;28;20223;-81
2023/10/29 03:53:03;;;;;;;2.90;1.00;;;;;;;12.34;81.21;63275.50;5013969;28;20223;-83
2023/10/29 03:55:30;;;;;;;4.05;0.90;;;;;;;12.29;81.41;63268.31;5013123;28;20219;-82
2023/10/29 03:57:57;;;;;;;0.90;0.80;;;;;;;12.07;81.70;63242.44;5014993;28;20210;-82
2023/10/29 04:00:24;;;;;;;3.13;0.90;;;;;;;12.08;81.78;63243.97;5012443;28;20216;-82
2023/10/29 04:02:51;;;;;;;4.00;1.00;;;;;;;12.14;81.81;63249.69;5012985;28;20211;-82
2023/10/29 04:05:20;;;;;;;2.83;0.90;;;;;;;12.14;81.77;63257.34;5013064;28;20251;-82
2023/10/29 04:07:47;;;;;;;3.47;0.93;;;;;;;12.14;82.18;63252.75;5012079;28;20200;-82
2023/10/29 04:10:14;;;;;;;2.47;0.93;;;;;;;12.16;81.91;63254.84;5012766;28;20290;-82
2023/10/29 04:12:42;;;;;;;1.92;0.85;;;;;;;12.08;81.83;63246.53;5013051;28;20215;-82
2023/10/29 04:15:09;;;;;;;1.50;1.13;;;;;;;12.02;81.39;63245.44;5010552;28;20209;-83
2023/10/29 04:17:37;;;;;;;1.67;0.70;;;;;;;12.07;81.11;63244.97;4997062;28;20415;-83
2023/10/29 04:20:05;;;;;;;1.55;0.73;;;;;;;12.02;79.58;63237.78;5009937;28;20207;-82
2023/10/29 04:22:34;;;;;;;1.00;0.73;;;;;;;12.07;79.07;63242.94;5020327;28;20213;-82
2023/10/29 04:25:01;;;;;;;1.15;0.90;;;;;;;12.03;80.92;63241.34;5013195;28;20199;-81
2023/10/29 04:27:28;;;;;;;0.63;0.60;;;;;;;11.99;79.69;63236.69;5012784;28;20202;-83
2023/10/29 04:29:55;;;;;;;4.05;0.60;;;;;;;12.02;80.36;63237.78;5014632;28;20230;-83
2023/10/29 04:32:23;;;;;;;0.82;0.63;;;;;;;12.03;79.12;63238.28;5012076;28;20504;-82
2023/10/29 04:34:51;;;;;;;3.05;0.73;;;;;;;12.01;78.86;63238.78;5016615;28;20221;-82
2023/10/29 04:37:18;;;;;;;2.15;0.50;;;;;;;12.02;78.21;63237.25;5010654;28;20220;-82
2023/10/29 04:39:49;;;;;;;3.40;1.10;;;;;;;11.96;78.92;63231.03;5006365;28;20195;-83
2023/10/29 04:42:16;;;;;;;2.17;0.70;;;;;;;12.04;78.92;63244.94;5013037;28;20223;-82
2023/10/29 04:44:43;;;;;;;1.30;0.63;;;;;;;11.77;78.97;63216.44;5015123;28;20191;-82
2023/10/29 04:47:10;;;;;;;2.38;0.90;;;;;;;11.86;79.51;63221.19;5003348;28;20224;-81
2023/10/29 04:49:37;;;;;;;2.63;1.00;;;;;;;11.74;82.67;63211.31;5010584;28;20239;-81
2023/10/29 04:52:04;;;;;;;1.80;0.88;;;;;;;11.70;82.69;63207.16;5013565;28;20230;-81
2023/10/29 04:54:33;;;;;;;3.78;0.90;;;;;;;11.69;83.11;63206.13;5013141;28;20206;-83
2023/10/29 04:57:02;;;;;;;3.10;0.80;;;;;;;11.66;84.54;63203.03;5012758;28;20367;-82
2023/10/29 04:59:29;;;;;;;1.95;1.25;;;;;;;11.63;84.34;63197.34;5013204;28;20203;-81
2023/10/29 05:01:56;;;;;;;2.75;0.70;;;;;;;11.58;84.80;63197.25;5013990;28;20251;-82
2023/10/29 05:04:25;;;;;;;0.90;0.90;;;;;;;11.54;86.07;63190.56;5012425;28;20515;-82
2023/10/29 05:06:54;;;;;;;2.45;1.50;;;;;;;11.52;87.27;63188.50;5012247;28;20278;-82
2023/10/29 05:09:21;;;;;;;1.20;1.10;;;;;;;11.46;88.69;63179.72;5012741;28;20226;-81
2023/10/29 05:11:48;;;;;;;1.42;1.33;;;;;;;11.41;89.21;63174.53;4998061;28;20282;-82
2023/10/29 05:14:17;;;;;;;2.45;1.77;;;;;;;11.41;90.36;63180.16;5012272;28;20281;-83
2023/10/29 05:16:46;;;;;;;3.58;1.40;;;;;;;11.39;90.41;63173.00;5011884;28;20219;-81
2023/10/29 05:19:15;;;;;;;3.20;1.00;;;;;;;11.35;89.84;63170.88;5011748;28;20278;-80
2023/10/29 05:21:42;;;;;;;2.17;1.40;;;;;;;11.31;90.67;63166.75;5012571;28;20261;-81
2023/10/29 05:24:10;;;;;;;3.78;1.52;;;;;;;11.23;92.26;63153.88;5012225;28;20203;-82
2023/10/29 05:26:37;;;;;;;1.70;1.60;;;;;;;11.30;92.74;63158.06;5010929;28;20234;-82
2023/10/29 05:29:05;;;;;;;2.33;1.83;;;;;;;11.32;93.29;63172.88;5003886;28;20255;-81
2023/10/29 05:31:35;;;;;;;3.60;2.05;;;;;;;11.31;93.90;63172.34;5003744;28;20239;-82
2023/10/29 05:34:01;;;;;;;3.60;2.42;;;;;;;11.56;94.28;63190.09;5011511;28;20199;-82
2023/10/29 05:36:29;;;;;;;4.97;2.40;;;;;;;11.63;94.39;63199.91;5006578;28;20238;-81
2023/10/29 05:38:56;;;;;;;3.00;1.70;;;;;;;11.72;94.15;63208.72;4995313;28;20208;-83
2023/10/29 05:41:23;;;;;;;2.80;2.15;;;;;;;11.66;94.16;63208.13;5000068;28;20228;-82
2023/10/29 05:43:51;;;;;;;2.05;1.10;;;;;;;11.80;94.03;63211.91;5005279;28;20207;-81
2023/10/29 05:46:22;;;;;;;6.03;1.98;;;;;;;11.79;93.83;63216.47;5014210;28;20448;-82
2023/10/29 05:48:50;;;;;;;3.20;1.75;;;;;;;11.95;93.81;63233.06;5000630;28;20345;-81
2023/10/29 05:51:19;;;;;;;7.70;2.17;;;;;;;11.99;90.03;63231.59;5000597;28;20436;-82
2023/10/29 05:53:46;;;;;;;3.70;1.17;;;;;;;12.00;89.68;63237.72;4997352;28;20230;-83
2023/10/29 05:56:14;;;;;;;3.40;1.25;;;;;;;12.13;88.68;63251.22;5001627;28;20280;-82
2023/10/29 05:58:41;;;;;;;1.40;1.10;;;;;;;12.16;88.00;63252.28;5002177;28;20203;-82
2023/10/29 06:01:10;;;;;;;2.38;1.20;;;;;;;12.35;87.08;63271.97;5000150;28;20227;-82
2023/10/29 06:03:37;;;;;;;1.58;1.48;;;;;;;12.46;86.31;63282.84;5004980;28;20456;-81
2023/10/29 06:06:06;;;;;;;1.35;1.17;;;;;;;12.71;84.11;63311.84;5000319;28;20351;-83
2023/10/29 06:08:33;;;;;;;2.00;1.02;;;;;;;12.88;83.49;63331.50;4999996;28;20211;-81
2023/10/29 06:11:00;;;;;;;20.95;8.85;;;;;;;13.05;82.79;63351.19;4992118;28;20246;-83
2023/10/29 06:13:28;;;;;;;13.30;6.15;;;;;;;13.26;82.83;63368.41;5006712;28;20211;-82
2023/10/29 06:15:55;;;;;;;8.38;5.90;;;;;;;13.46;83.36;63393.75;5009738;28;20296;-83
2023/10/29 06:18:22;;;;;;;9.25;6.10;;;;;;;13.57;82.83;63398.00;5001769;28;20215;-83
2023/10/29 06:20:49;;;;;;;10.52;5.95;;;;;;;13.53;81.34;63401.03;5007650;28;20226;-79
2023/10/29 06:23:18;;;;;;;5.50;2.50;;;;;;;13.62;80.51;63405.22;5003314;28;20508;-81
2023/10/29 06:25:44;;;;;;;1.77;1.52;;;;;;;13.63;80.28;63403.72;5000861;28;20238;-81
2023/10/29 06:28:13;;;;;;;3.13;1.90;;;;;;;13.65;80.36;63408.88;4999726;28;20286;-80
2023/10/29 06:30:40;;;;;;;6.85;1.90;;;;;;;13.45;82.67;63385.03;5009384;28;20238;-82
2023/10/29 06:33:07;;;;;;;3.22;1.80;;;;;;;13.43;82.68;63388.59;5013489;28;20191;-80
2023/10/29 06:35:34;;;;;;;6.32;2.45;;;;;;;13.59;84.23;63404.69;4998666;28;20222;-81
2023/10/29 06:38:01;;;;;;;2.50;1.83;;;;;;;13.46;84.17;63393.75;5008231;28;20440;-81
2023/10/29 06:40:31;;;;;;;7.22;2.40;;;;;;;13.60;84.81;63405.72;5002074;28;20215;-82
2023/10/29 06:42:58;;;;;;;5.35;2.53;;;;;;;13.71;85.15;63415.09;4999329;28;20215;-82
2023/10/29 06:45:25;;;;;;;3.20;2.20;;;;;;;13.74;83.27;63420.78;4998792;28;20267;-82
2023/10/29 06:47:52;;;;;;;4.30;1.88;;;;;;;13.71;81.78;63412.53;5006700;28;20402;-83
2023/10/29 06:50:20;;;;;;;5.50;2.63;;;;;;;13.77;81.63;63423.38;5007214;28;20223;-81
2023/10/29 06:52:47;;;;;;;7.07;2.22;;;;;;;13.61;82.29;63409.84;5001616;28;20223;-80
2023/10/29 06:55:14;;;;;;;3.58;2.70;;;;;;;13.85;82.07;63427.06;5005396;28;20263;-80
2023/10/29 06:57:43;;;;;;;7.43;1.75;;;;;;;13.90;82.59;63437.38;5006539;28;20195;-82
2023/10/29 07:00:11;;;;;;;4.60;2.47;;;;;;;13.90;81.54;63432.25;5004826;28;20195;-82
2023/10/29 07:02:38;;;;;;;3.80;2.38;;;;;;;13.78;81.71;63419.81;5000800;28;20204;-83
2023/10/29 07:05:06;;;;;;;4.18;2.90;;;;;;;13.93;82.74;63439.47;4997040;28;20210;-83
2023/10/29 07:07:34;;;;;;;3.17;2.10;;;;;;;14.02;82.27;63449.31;5010765;28;20258;-82
2023/10/29 07:10:02;;;;;;;4.32;2.05;;;;;;;14.07;81.87;63451.94;5009369;28;20250;-83
2023/10/29 07:12:31;;;;;;;3.80;2.38;;;;;;;14.16;81.09;63458.22;5011627;28;20214;-83
2023/10/29 07:15:00;;;;;;;3.35;2.35;;;;;;;14.39;79.02;63479.56;5010211;28;20203;-83
2023/10/29 07:17:27;;;;;;;4.63;2.50;;;;;;;14.54;76.92;63500.78;5013543;28;20191;-82
2023/10/29 07:19:55;;;;;;;3.28;2.97;;;;;;;14.55;75.50;63501.28;5011235;28;20198;-83
2023/10/29 07:22:23;;;;;;;3.60;2.00;;;;;;;14.72;73.51;63521.53;5009990;28;20230;-81
2023/10/29 07:24:50;;;;;;;4.25;1.90;;;;;;;14.75;72.19;63525.13;5012321;28;20320;-82
2023/10/29 07:27:17;;;;;;;2.67;1.90;;;;;;;14.91;70.26;63539.22;5005856;28;20287;-83
2023/10/29 07:29:45;;;;;;;4.03;1.80;;;;;;;15.07;70.01;63555.31;5011064;28;20264;-82
2023/10/29 07:32:13;;;;;;;4.72;2.28;;;;;;;15.23;69.71;63571.94;5013070;28;20528;-84
2023/10/29 07:34:40;;;;;;;2.10;1.40;;;;;;;15.38;69.27;63587.53;5012131;28;20203;-84
2023/10/29 07:37:07;;;;;;;5.85;1.58;;;;;;;15.52;67.53;63602.09;5003197;28;20223;-82
2023/10/29 07:39:35;;;;;;;5.32;2.33;;;;;;;15.52;66.05;63601.56;5007387;28;20198;-83
2023/10/29 07:42:02;;;;;;;4.05;1.85;;;;;;;15.61;66.00;63608.38;5010427;28;20267;-83
2023/10/29 07:44:30;;;;;;;3.83;1.40;;;;;;;15.70;65.70;63623.38;5008930;28;20220;-82
2023/10/29 07:47:03;;;;;;;4.90;1.90;;;;;;;15.77;65.16;63630.16;5005232;28;20215;-83
2023/10/29 07:49:32;;;;;;;4.63;2.13;;;;;;;15.93;64.45;63639.06;5010607;28;20222;-82
2023/10/29 07:51:59;;;;;;;3.70;1.50;;;;;;;15.92;63.95;63640.59;5006473;28;20231;-84
2023/10/29 07:54:27;;;;;;;5.30;1.63;;;;;;;15.93;63.23;63649.88;5005595;28;20235;-80
2023/10/29 07:56:54;;;;;;;3.60;2.13;;;;;;;15.95;62.14;63643.72;5010034;28;20229;-82
2023/10/29 07:59:22;;;;;;;4.22;1.80;;;;;;;15.96;61.44;63644.78;5008022;28;20198;-81
2023/10/29 08:01:49;;;;;;;4.25;2.15;;;;;;;16.02;62.26;63656.13;5008319;28;20304;-81
2023/10/29 08:04:16;;;;;;;3.03;1.98;;;;;;;16.07;64.41;63659.28;5010445;28;20195;-82
2023/10/29 08:06:45;;;;;;;5.32;2.28;;;;;;;16.22;64.94;63671.81;5008607;28;20416;-81
2023/10/29 08:09:12;;;;;;;4.20;1.90;;;;;;;16.41;64.69;63698.75;5007875;28;20365;-83
2023/10/29 08:11:39;;;;;;;4.00;2.67;;;;;;;16.57;62.99;63708.22;5014426;28;20297;-81
2023/10/29 08:14:06;;;;;;;2.72;2.10;;;;;;;16.59;62.42;63707.22;5002898;28;20274;-81
2023/10/29 08:16:34;;;;;;;6.28;2.53;;;;;;;16.46;63.20;63704.50;5007382;28;20245;-82
2023/10/29 08:19:01;;;;;;;2.13;1.92;;;;;;;16.69;62.31;63720.72;5016108;28;20202;-82
2023/10/29 08:21:28;;;;;;;3.58;2.28;;;;;;;16.77;60.87;63733.66;5011763;28;20221;-83
2023/10/29 08:23:57;;;;;;;3.72;2.20;;;;;;;16.99;60.53;63753.97;5012175;28;20225;-82
2023/10/29 08:26:26;;;;;;;6.10;2.35;;;;;;;17.02;59.48;63754.53;5006247;28;20231;-82
2023/10/29 08:28:53;;;;;;;4.85;2.10;;;;;;;17.05;59.68;63755.59;5012319;28;20206;-81
2023/10/29 08:31:21;;;;;;;7.57;1.83;;;;;;;17.07;61.33;63760.25;5013506;28;20234;-83
2023/10/29 08:33:48;;;;;;;3.25;2.13;;;;;;;17.18;59.58;63776.88;5013401;28;20233;-81
2023/10/29 08:36:16;;;;;;;2.85;2.00;;;;;;;17.25;59.13;63783.63;5012539;28;20260;-81
2023/10/29 08:38:44;;;;;;;3.35;2.25;;;;;;;17.17;58.59;63775.81;5009443;28;20282;-81
2023/10/29 08:41:16;;;;;;;3.17;1.40;;;;;;;17.13;57.84;63771.13;5012249;28;20375;-81
2023/10/29 08:43:44;;;;;;;3.53;1.70;;;;;;;17.29;57.72;63790.38;5011900;28;20349;-82
2023/10/29 08:46:12;;;;;;;5.60;1.52;;;;;;;17.34;56.94;63790.44;5013125;28;20250;-82
2023/10/29 08:48:40;;;;;;;4.53;2.38;;;;;;;17.67;57.70;63821.72;5001855;28;20267;-82
2023/10/29 08:51:11;;;;;;;4.90;2.40;;;;;;;17.68;56.30;63823.28;4993115;28;20262;-83
2023/10/29 08:53:38;;;;;;;4.22;2.58;;;;;;;17.55;56.36;63814.88;5008907;28;20274;-81
2023/10/29 08:56:07;;;;;;;3.53;1.75;;;;;;;17.63;55.88;63820.13;5012831;28;20226;-82
2023/10/29 08:58:36;;;;;;;5.90;2.40;;;;;;;17.55;56.18;63814.38;5014102;28;20216;-81
2023/10/29 09:01:07;;;;;;;5.22;2.67;;;;;;;17.59;56.14;63818.50;5011216;28;20222;-81
2023/10/29 09:03:35;;;;;;;6.35;3.50;;;;;;;17.76;56.28;63834.16;5011607;28;20289;-83
2023/10/29 09:06:04;;;;;;;3.53;3.00;;;;;;;17.81;56.54;63839.38;5005173;28;20250;-83
2023/10/29 09:08:33;;;;;;;6.13;2.83;;;;;;;18.01;55.58;63859.69;4993417;28;20202;-81
2023/10/29 09:11:00;;;;;;;5.13;2.97;;;;;;;18.01;55.22;63865.38;4995989;28;20230;-82
2023/10/29 09:13:28;;;;;;;3.72;3.08;;;;;;;18.20;55.76;63880.00;5012415;28;20209;-81
2023/10/29 09:15:59;;;;;;;6.65;2.58;;;;;;;18.29;54.44;63889.38;4997308;28;20251;-81
2023/10/29 09:18:27;;;;;;;4.72;2.10;;;;;;;18.10;53.77;63872.16;4994901;28;20223;-83
2023/10/29 09:20:54;;;;;;;4.22;2.35;;;;;;;18.45;53.57;63905.53;5011889;28;20346;-83
2023/10/29 09:23:23;;;;;;;5.30;2.80;;;;;;;18.54;53.15;63914.94;5013688;28;20203;-81
2023/10/29 09:25:50;;;;;;;5.78;2.60;;;;;;;18.76;52.97;63937.84;5013024;28;20223;-80
2023/10/29 09:28:20;;;;;;;4.90;2.90;;;;;;;18.73;53.41;63939.88;5013628;28;20194;-83
2023/10/29 09:30:48;;;;;;;5.72;3.10;;;;;;;18.61;53.71;63921.69;5007764;28;20540;-83
2023/10/29 09:33:17;;;;;;;5.20;3.92;;;;;;;18.88;53.03;63952.44;4994503;28;20192;-81
2023/10/29 09:35:44;;;;;;;7.38;3.00;;;;;;;18.85;53.25;63949.81;4994054;28;20270;-82
2023/10/29 09:38:12;;;;;;;6.15;2.65;;;;;;;19.11;51.85;63971.22;4996216;28;20196;-83
2023/10/29 09:40:40;;;;;;;7.45;1.83;;;;;;;19.08;49.68;63973.28;5012498;28;20257;-82
2023/10/29 09:43:08;;;;;;;3.75;1.92;;;;;;;18.84;50.65;63946.19;5013797;28;20206;-82
2023/10/29 09:45:45;;;;;;;4.60;1.90;;;;;;;18.87;50.56;63951.38;5014719;28;20211;-82
2023/10/29 09:48:14;;;;;;;3.28;2.10;;;;;;;18.93;50.33;63953.00;5014317;28;20199;-82
2023/10/29 09:50:44;;;;;;;2.88;1.77;;;;;;;18.95;50.81;63957.13;5032012;28;20260;-83
2023/10/29 09:53:12;;;;;;;3.35;2.35;;;;;;;19.09;51.27;63974.31;5032191;28;20475;-84
2023/10/29 09:55:40;;;;;;;2.88;2.22;;;;;;;19.27;50.66;63991.03;5030362;28;20446;-83
2023/10/29 09:58:09;;;;;;;2.35;1.60;;;;;;;19.37;49.42;64004.06;5012886;28;20214;-83
2023/10/29 10:00:38;;;;;;;3.55;1.42;;;;;;;19.34;48.94;64000.94;5014748;28;20223;-82
2023/10/29 10:03:05;;;;;;;6.45;2.20;;;;;;;19.10;49.17;63970.72;5013317;28;20215;-82
2023/10/29 10:05:33;;;;;;;2.25;2.05;;;;;;;19.17;49.41;63983.16;5010981;28;20430;-82
2023/10/29 10:08:02;;;;;;;3.80;2.25;;;;;;;19.29;49.49;63993.09;5011473;28;20206;-83
2023/10/29 10:10:40;;;;;;;1.75;1.45;;;;;;;19.39;48.84;64000.97;5010994;28;20248;-82
2023/10/29 10:13:08;;;;;;;1.63;1.50;;;;;;;19.40;48.87;64006.66;5012892;28;20217;-81
2023/10/29 10:15:36;;;;;;;3.63;2.08;;;;;;;19.45;48.75;64009.28;5013940;28;20281;-81
2023/10/29 10:18:05;;;;;;;2.50;1.70;;;;;;;19.15;48.80;63981.09;5011473;28;20618;-84
2023/10/29 10:20:33;;;;;;;2.17;1.85;;;;;;;19.46;48.34;64010.34;5011899;28;20223;-83
2023/10/29 10:23:11;;;;;;;3.70;1.52;;;;;;;19.32;47.58;63995.75;5012886;28;20218;-83
2023/10/29 10:25:40;;;;;;;2.97;1.63;;;;;;;19.44;48.02;64010.84;5010033;28;20234;-82
2023/10/29 10:28:07;;;;;;;4.82;2.38;;;;;;;19.61;47.38;64025.97;5022529;28;20245;-82
2023/10/29 10:30:37;;;;;;;4.22;1.95;;;;;;;19.66;47.95;64031.19;5030789;28;20246;-82
2023/10/29 10:33:12;;;;;;;4.38;1.95;;;;;;;19.73;47.79;64038.50;5023578;28;20209;-83
2023/10/29 10:35:42;;;;;;;2.35;1.83;;;;;;;19.63;48.17;64027.53;5012991;28;20256;-82
2023/10/29 10:38:14;;;;;;;6.13;2.95;;;;;;;19.93;49.43;64061.44;5012584;28;20218;-84
2023/10/29 10:40:45;;;;;;;6.90;2.30;;;;;;;19.97;47.42;64065.59;5014505;28;20226;-82
2023/10/29 10:43:18;;;;;;;6.03;2.60;;;;;;;20.28;47.82;64101.06;5001025;28;20391;-82
2023/10/29 10:45:50;;;;;;;4.03;2.88;;;;;;;20.34;47.04;64101.63;4995252;28;20249;-83
2023/10/29 10:48:18;;;;;;;3.80;2.03;;;;;;;20.59;45.72;64128.25;5011230;28;20236;-82
2023/10/29 10:50:47;;;;;;;1.67;1.58;;;;;;;20.37;45.56;64107.34;5009741;28;20258;-81
2023/10/29 10:53:17;;;;;;;1.92;1.83;;;;;;;20.40;45.70;64110.47;5010612;28;20198;-83
2023/10/29 10:55:45;;;;;;;4.95;2.00;;;;;;;20.17;46.60;64084.41;5020904;28;20214;-81
2023/10/29 10:58:18;;;;;;;2.42;2.22;;;;;;;20.20;45.67;64087.56;5017357;28;20201;-82
2023/10/29 11:00:46;;;;;;;2.72;1.90;;;;;;;20.00;45.89;64068.72;5011193;28;20225;-81
2023/10/29 11:03:14;;;;;;;3.17;1.77;;;;;;;19.87;46.10;64055.69;5011027;28;20515;-80
2023/10/29 11:05:41;;;;;;;4.75;1.75;;;;;;;19.87;46.07;64055.16;5000678;28;20269;-79
2023/10/29 11:08:11;;;;;;;2.67;2.03;;;;;;;20.04;46.56;64072.91;4992648;28;20203;-79
2023/10/29 11:10:41;;;;;;;6.03;1.88;;;;;;;20.26;45.32;64095.88;5008660;28;20222;-84
2023/10/29 11:13:22;;;;;;;4.32;1.50;;;;;;;20.10;45.45;64077.09;5011770;28;20191;-81
2023/10/29 11:15:50;;;;;;;4.22;2.13;;;;;;;20.04;46.33;64070.84;5011224;28;20241;-82
2023/10/29 11:18:28;;;;;;;4.10;2.00;;;;;;;20.22;45.86;64089.13;5003726;28;20203;-81
2023/10/29 11:20:56;;;;;;;1.45;1.35;;;;;;;20.31;44.82;64096.44;5011345;28;20283;-84
2023/10/29 11:23:26;;;;;;;2.63;1.45;;;;;;;20.57;43.45;64126.16;5002758;28;20222;-82
2023/10/29 11:26:25;;;;;;;2.22;1.55;;;;;;;20.54;42.60;64123.03;5007968;28;20458;-80
2023/10/29 11:28:54;;;;;;;4.68;1.88;;;;;;;20.38;42.53;64103.25;5010553;28;20265;-80
2023/10/29 11:31:23;;;;;;;1.83;1.10;;;;;;;20.37;41.11;64109.94;5011032;28;20242;-82
2023/10/29 11:34:29;;;;;;;6.93;1.88;;;;;;;20.65;43.06;64136.59;5027840;28;20225;-81
2023/10/29 11:36:57;;;;;;;2.75;1.60;;;;;;;20.49;42.28;64117.81;4992865;28;20246;-81
2023/10/29 11:39:32;;;;;;;1.98;1.48;;;;;;;20.55;42.10;64120.97;5011624;28;20206;-81